createdAt,value
2019-04-30T00:00:49.608Z,99.90
2019-04-30T00:03:19.516Z,99.90
2019-04-30T00:05:49.354Z,99.90
2019-04-30T00:08:15.894Z,99.90
2019-04-30T00:10:41.785Z,99.90
2019-04-30T00:13:10.484Z,99.90
2019-04-30T00:15:35.917Z,99.90
2019-04-30T00:18:01.997Z,99.90
2019-04-30T00:20:30.027Z,99.90
2019-04-30T00:22:56.008Z,99.90
2019-04-30T00:25:24.943Z,99.90
2019-04-30T00:27:50.238Z,99.90
2019-04-30T00:30:16.499Z,99.90
2019-04-30T00:32:43.819Z,99.90
2019-04-30T00:35:11.764Z,99.90
2019-04-30T00:37:38.770Z,99.90
2019-04-30T00:40:05.574Z,99.90
2019-04-30T00:42:31.781Z,99.90
2019-04-30T00:44:59.533Z,99.90
2019-04-30T00:47:25.954Z,99.90
2019-04-30T00:49:56.317Z,99.90
2019-04-30T00:52:19.983Z,99.90
2019-04-30T00:54:46.109Z,99.90
2019-04-30T00:57:12.159Z,99.90
2019-04-30T00:59:39.686Z,99.90
2019-04-30T01:02:11.606Z,99.90
2019-04-30T01:04:39.559Z,99.90
2019-04-30T01:07:08.631Z,99.90
2019-04-30T01:09:35.445Z,99.90
2019-04-30T01:12:01.760Z,99.90
2019-04-30T01:14:31.857Z,99.90
2019-04-30T01:16:55.791Z,99.90
2019-04-30T01:19:30.036Z,99.90
2019-04-30T01:21:50.919Z,99.90
2019-04-30T01:24:18.913Z,99.90
2019-04-30T01:26:45.267Z,99.90
2019-04-30T01:29:11.502Z,99.90
2019-04-30T01:31:40.736Z,99.90
2019-04-30T01:34:12.389Z,99.90
2019-04-30T01:36:33.673Z,99.90
2019-04-30T01:38:59.740Z,99.90
2019-04-30T01:41:27.534Z,99.90
2019-04-30T01:43:53.765Z,99.90
2019-04-30T01:46:20.978Z,99.90
2019-04-30T01:48:48.627Z,99.90
2019-04-30T01:51:20.446Z,99.90
2019-04-30T01:53:43.842Z,99.90
2019-04-30T01:56:15.351Z,99.90
2019-04-30T01:58:43.416Z,99.90
2019-04-30T02:01:23.473Z,99.90
2019-04-30T02:03:49.524Z,99.90
2019-04-30T02:06:15.587Z,99.90
2019-04-30T02:08:41.768Z,99.90
2019-04-30T02:11:09.030Z,99.90
2019-04-30T02:13:35.358Z,99.90
2019-04-30T02:16:01.395Z,99.90
2019-04-30T02:18:29.449Z,99.90
2019-04-30T02:20:55.429Z,99.90
2019-04-30T02:23:21.479Z,99.90
2019-04-30T02:25:48.989Z,99.90
2019-04-30T02:28:15.358Z,99.90
2019-04-30T02:30:42.425Z,99.90
2019-04-30T02:33:09.607Z,99.90
2019-04-30T02:35:40.488Z,99.90
2019-04-30T02:38:20.206Z,99.90
2019-04-30T02:40:49.646Z,99.90
2019-04-30T02:43:15.551Z,99.90
2019-04-30T02:45:44.437Z,99.90
2019-04-30T02:48:11.797Z,99.90
2019-04-30T02:50:40.769Z,99.90
2019-04-30T02:53:29.252Z,99.90
2019-04-30T02:55:55.442Z,99.90
2019-04-30T02:58:21.513Z,99.90
2019-04-30T03:00:49.603Z,99.90
2019-04-30T03:03:15.580Z,99.90
2019-04-30T03:05:41.738Z,99.90
2019-04-30T03:08:09.633Z,99.90
2019-04-30T03:10:35.816Z,99.90
2019-04-30T03:13:01.874Z,99.90
2019-04-30T03:15:29.890Z,99.90
2019-04-30T03:18:13.206Z,99.90
2019-04-30T03:20:44.181Z,99.90
2019-04-30T03:23:10.276Z,99.90
2019-04-30T03:25:36.451Z,99.90
2019-04-30T03:28:02.616Z,99.90
2019-04-30T03:30:32.055Z,99.90
2019-04-30T03:32:57.296Z,99.90
2019-04-30T03:35:23.516Z,99.90
2019-04-30T03:37:49.743Z,99.90
2019-04-30T03:40:15.944Z,99.90
2019-04-30T03:42:42.014Z,99.90
2019-04-30T03:45:10.293Z,99.90
2019-04-30T03:47:36.249Z,99.90
2019-04-30T03:50:03.519Z,99.90
2019-04-30T03:52:29.607Z,99.90
2019-04-30T03:54:55.675Z,99.90
2019-04-30T03:57:21.736Z,99.90
2019-04-30T03:59:49.976Z,99.90
2019-04-30T04:02:26.688Z,99.90
2019-04-30T04:05:00.896Z,99.90
2019-04-30T04:07:44.055Z,99.90
2019-04-30T04:10:20.919Z,99.90
2019-04-30T04:12:49.611Z,99.90
2019-04-30T04:15:14.961Z,99.90
2019-04-30T04:17:41.061Z,99.90
2019-04-30T04:20:07.230Z,99.90
2019-04-30T04:22:33.411Z,99.90
2019-04-30T04:25:00.238Z,99.90
2019-04-30T04:27:26.452Z,99.90
2019-04-30T04:29:52.508Z,99.90
2019-04-30T04:32:23.553Z,99.90
2019-04-30T04:34:47.043Z,99.90
2019-04-30T04:37:13.091Z,99.90
2019-04-30T04:39:41.978Z,99.90
2019-04-30T04:42:09.957Z,99.90
2019-04-30T04:44:35.239Z,99.90
2019-04-30T04:47:01.290Z,99.90
2019-04-30T04:49:30.302Z,99.90
2019-04-30T04:51:55.334Z,99.90
2019-04-30T04:54:21.379Z,99.90
2019-04-30T04:56:52.889Z,99.90
2019-04-30T04:59:15.425Z,99.90
2019-04-30T05:01:41.484Z,99.90
2019-04-30T05:04:11.477Z,99.90
2019-04-30T05:06:35.529Z,99.90
2019-04-30T05:09:02.621Z,99.90
2019-04-30T05:11:29.373Z,99.90
2019-04-30T05:13:56.640Z,99.90
2019-04-30T05:16:22.711Z,99.90
2019-04-30T05:18:48.901Z,99.90
2019-04-30T05:21:15.053Z,99.90
2019-04-30T05:23:42.678Z,99.90
2019-04-30T05:26:11.107Z,99.90
2019-04-30T05:28:36.867Z,99.90
2019-04-30T05:31:03.318Z,99.90
2019-04-30T05:33:29.401Z,99.90
2019-04-30T05:35:55.489Z,99.90
2019-04-30T05:38:21.544Z,99.90
2019-04-30T05:40:49.393Z,99.90
2019-04-30T05:43:19.851Z,99.90
2019-04-30T05:45:46.055Z,99.90
2019-04-30T05:48:12.118Z,99.90
2019-04-30T05:50:39.131Z,99.90
2019-04-30T05:53:05.552Z,99.90
2019-04-30T05:55:31.612Z,99.90
2019-04-30T05:57:58.774Z,99.90
2019-04-30T06:00:25.689Z,99.90
2019-04-30T06:02:51.737Z,99.90
2019-04-30T06:05:18.817Z,99.90
2019-04-30T06:07:46.169Z,99.90
2019-04-30T06:10:23.372Z,99.90
2019-04-30T06:12:54.455Z,99.90
2019-04-30T06:15:26.069Z,99.90
2019-04-30T06:18:00.357Z,99.90
2019-04-30T06:20:21.515Z,99.90
2019-04-30T06:22:49.687Z,99.90
2019-04-30T06:25:30.462Z,99.90
2019-04-30T06:27:44.833Z,99.90
2019-04-30T06:30:12.149Z,99.90
2019-04-30T06:32:39.517Z,99.90
2019-04-30T06:35:09.183Z,99.90
2019-04-30T06:37:35.416Z,99.90
2019-04-30T06:40:01.705Z,99.90
2019-04-30T06:42:29.337Z,99.90
2019-04-30T06:44:55.627Z,99.90
2019-04-30T06:47:32.538Z,99.90
2019-04-30T06:49:50.155Z,99.90
2019-04-30T06:52:20.797Z,99.90
2019-04-30T06:54:44.211Z,99.90
2019-04-30T06:57:12.057Z,99.90
2019-04-30T06:59:39.605Z,99.90
2019-04-30T07:02:06.023Z,99.90
2019-04-30T07:04:32.110Z,99.90
2019-04-30T07:06:58.999Z,99.90
2019-04-30T07:09:43.602Z,99.90
2019-04-30T07:12:03.063Z,99.90
2019-04-30T07:14:29.287Z,99.90
2019-04-30T07:16:55.367Z,99.90
2019-04-30T07:19:31.765Z,99.90
2019-04-30T07:21:49.661Z,99.90
2019-04-30T07:24:15.869Z,99.90
2019-04-30T07:26:41.941Z,99.90
2019-04-30T07:29:09.564Z,99.90
2019-04-30T07:31:36.000Z,99.90
2019-04-30T07:34:02.263Z,99.90
2019-04-30T07:36:43.378Z,99.90
2019-04-30T07:38:56.961Z,99.90
2019-04-30T07:41:24.274Z,99.90
2019-04-30T07:43:50.425Z,99.90
2019-04-30T07:46:16.510Z,99.90
2019-04-30T07:48:42.566Z,99.90
2019-04-30T07:51:10.347Z,99.90
2019-04-30T07:53:36.620Z,99.90
2019-04-30T07:56:02.890Z,99.90
2019-04-30T07:58:29.811Z,99.90
2019-04-30T08:00:56.453Z,99.90
2019-04-30T08:03:29.913Z,99.90
2019-04-30T08:05:59.557Z,99.90
2019-04-30T08:08:25.808Z,99.90
2019-04-30T08:10:52.368Z,99.90
2019-04-30T08:13:21.251Z,99.90
2019-04-30T08:15:46.441Z,99.90
2019-04-30T08:18:12.525Z,99.90
2019-04-30T08:20:39.309Z,99.90
2019-04-30T08:23:15.589Z,99.20
2019-04-30T08:25:33.636Z,99.60
2019-04-30T08:27:59.699Z,99.10
2019-04-30T08:30:27.142Z,99.40
2019-04-30T08:32:53.858Z,99.40
2019-04-30T08:35:19.920Z,99.30
2019-04-30T08:37:45.992Z,99.10
2019-04-30T08:40:12.260Z,99.50
2019-04-30T08:42:40.301Z,99.50
2019-04-30T08:45:09.379Z,99.50
2019-04-30T08:47:35.442Z,99.70
2019-04-30T08:50:03.276Z,98.90
2019-04-30T08:52:30.502Z,99.20
2019-04-30T08:54:56.672Z,98.90
2019-04-30T08:57:22.796Z,98.70
2019-04-30T08:59:49.456Z,98.70
2019-04-30T09:02:16.580Z,99.00
2019-04-30T09:04:42.897Z,98.50
2019-04-30T09:07:10.232Z,99.10
2019-04-30T09:09:36.392Z,98.30
2019-04-30T09:12:02.487Z,98.60
2019-04-30T09:14:29.735Z,99.90
2019-04-30T09:16:56.166Z,98.00
2019-04-30T09:19:22.228Z,98.30
2019-04-30T09:21:48.890Z,98.50
2019-04-30T09:24:15.173Z,98.10
2019-04-30T09:26:41.244Z,98.60
2019-04-30T09:29:09.187Z,98.00
2019-04-30T09:31:35.396Z,98.00
2019-04-30T09:34:13.767Z,97.50
2019-04-30T09:36:29.542Z,97.40
2019-04-30T09:38:55.651Z,97.40
2019-04-30T09:41:21.827Z,97.20
2019-04-30T09:43:49.388Z,96.90
2019-04-30T09:46:24.634Z,98.00
2019-04-30T09:48:43.652Z,97.10
2019-04-30T09:51:10.995Z,98.10
2019-04-30T09:53:39.255Z,97.90
2019-04-30T09:56:05.485Z,97.30
2019-04-30T09:58:31.554Z,97.80
2019-04-30T10:00:59.355Z,98.60
2019-04-30T10:03:26.029Z,98.30
2019-04-30T10:05:53.202Z,97.20
2019-04-30T10:08:20.901Z,97.30
2019-04-30T10:10:58.775Z,98.30
2019-04-30T10:13:24.956Z,97.90
2019-04-30T10:15:55.972Z,98.30
2019-04-30T10:18:22.128Z,97.70
2019-04-30T10:20:48.200Z,97.90
2019-04-30T10:23:14.290Z,99.40
2019-04-30T10:25:40.547Z,98.20
2019-04-30T10:28:06.882Z,98.10
2019-04-30T10:30:34.223Z,97.90
2019-04-30T10:33:00.290Z,98.10
2019-04-30T10:35:28.464Z,97.10
2019-04-30T10:37:54.339Z,97.60
2019-04-30T10:40:20.505Z,97.50
2019-04-30T10:42:48.747Z,98.00
2019-04-30T10:45:14.744Z,97.60
2019-04-30T10:47:40.816Z,97.80
2019-04-30T10:50:09.720Z,96.50
2019-04-30T10:52:35.564Z,97.30
2019-04-30T10:55:04.413Z,96.60
2019-04-30T10:57:29.899Z,97.20
2019-04-30T10:59:56.290Z,97.20
2019-04-30T11:02:22.486Z,96.70
2019-04-30T11:04:48.536Z,96.00
2019-04-30T11:07:14.950Z,95.80
2019-04-30T11:09:41.306Z,96.50
2019-04-30T11:12:09.387Z,96.80
2019-04-30T11:14:35.565Z,96.00
2019-04-30T11:17:01.870Z,95.60
2019-04-30T11:19:29.289Z,96.00
2019-04-30T11:21:55.778Z,95.60
2019-04-30T11:24:22.060Z,95.50
2019-04-30T11:26:50.119Z,95.30
2019-04-30T11:29:16.436Z,95.60
2019-04-30T11:32:01.764Z,96.10
2019-04-30T11:34:28.406Z,95.90
2019-04-30T11:36:55.088Z,96.30
2019-04-30T11:39:21.357Z,95.30
2019-04-30T11:41:47.785Z,95.60
2019-04-30T11:44:14.218Z,96.20
2019-04-30T11:46:56.666Z,95.80
2019-04-30T11:49:22.754Z,95.80
2019-04-30T11:51:48.819Z,94.90
2019-04-30T11:54:15.089Z,94.70
2019-04-30T11:56:41.155Z,94.90
2019-04-30T11:59:08.700Z,95.00
2019-04-30T12:01:35.020Z,95.40
2019-04-30T12:04:01.151Z,94.60
2019-04-30T12:06:28.523Z,94.90
2019-04-30T12:08:59.476Z,94.50
2019-04-30T12:11:36.280Z,94.10
2019-04-30T12:14:03.387Z,94.20
2019-04-30T12:16:29.521Z,94.60
2019-04-30T12:18:55.583Z,94.90
2019-04-30T12:21:21.773Z,95.00
2019-04-30T12:23:47.850Z,93.40
2019-04-30T12:26:13.932Z,94.70
2019-04-30T12:28:40.060Z,93.90
2019-04-30T12:31:06.148Z,93.20
2019-04-30T12:33:32.308Z,93.00
2019-04-30T12:35:59.574Z,93.10
2019-04-30T12:38:25.959Z,93.00
2019-04-30T12:40:52.114Z,94.00
2019-04-30T12:43:18.179Z,92.80
2019-04-30T12:45:44.427Z,94.00
2019-04-30T12:48:24.106Z,93.30
2019-04-30T12:51:07.219Z,93.80
2019-04-30T12:53:50.356Z,93.20
2019-04-30T12:56:26.698Z,92.00
2019-04-30T12:58:46.307Z,92.80
2019-04-30T13:01:12.394Z,92.80
2019-04-30T13:03:39.946Z,92.60
2019-04-30T13:06:06.887Z,92.00
2019-04-30T13:08:33.952Z,91.40
2019-04-30T13:11:00.831Z,91.00
2019-04-30T13:13:31.458Z,90.80
2019-04-30T13:15:55.324Z,91.50
2019-04-30T13:18:21.389Z,91.20
2019-04-30T13:20:48.969Z,90.70
2019-04-30T13:23:15.444Z,91.40
2019-04-30T13:25:50.758Z,91.00
2019-04-30T13:28:11.449Z,90.30
2019-04-30T13:30:39.615Z,90.20
2019-04-30T13:33:09.428Z,90.20
2019-04-30T13:35:35.696Z,90.50
2019-04-30T13:38:06.519Z,90.10
2019-04-30T13:40:38.953Z,89.10
2019-04-30T13:43:07.141Z,88.80
2019-04-30T13:45:33.228Z,90.20
2019-04-30T13:47:59.420Z,91.60
2019-04-30T13:50:25.482Z,90.10
2019-04-30T13:52:51.568Z,88.90
2019-04-30T13:55:19.208Z,88.40
2019-04-30T13:57:45.542Z,87.60
2019-04-30T14:00:14.376Z,84.80
2019-04-30T14:02:51.328Z,83.60
2019-04-30T14:05:17.908Z,85.90
2019-04-30T14:07:46.189Z,85.00
2019-04-30T14:10:13.071Z,83.10
2019-04-30T14:12:41.068Z,85.60
2019-04-30T14:15:09.219Z,84.50
2019-04-30T14:17:35.821Z,85.00
2019-04-30T14:20:06.033Z,85.90
2019-04-30T14:22:32.236Z,83.70
2019-04-30T14:24:58.326Z,78.80
2019-04-30T14:27:24.495Z,78.70
2019-04-30T14:29:50.589Z,78.30
2019-04-30T14:32:18.481Z,79.20
2019-04-30T14:34:44.685Z,79.70
2019-04-30T14:37:10.855Z,76.70
2019-04-30T14:39:37.214Z,76.60
2019-04-30T14:42:04.714Z,76.30
2019-04-30T14:44:33.655Z,79.60
2019-04-30T14:47:15.073Z,77.40
2019-04-30T14:49:43.743Z,78.80
2019-04-30T14:52:10.121Z,81.90
2019-04-30T14:54:44.132Z,82.10
2019-04-30T14:57:28.935Z,81.90
2019-04-30T15:00:13.616Z,80.30
2019-04-30T15:02:41.596Z,79.80
2019-04-30T15:05:09.022Z,77.90
2019-04-30T15:07:35.218Z,78.00
2019-04-30T15:10:02.897Z,74.00
2019-04-30T15:12:28.987Z,74.50
2019-04-30T15:14:55.058Z,76.30
2019-04-30T15:17:21.146Z,74.00
2019-04-30T15:19:49.389Z,76.50
2019-04-30T15:22:15.191Z,76.60
2019-04-30T15:24:41.385Z,78.40
2019-04-30T15:27:09.077Z,83.10
2019-04-30T15:29:35.443Z,84.30
2019-04-30T15:32:01.653Z,87.00
2019-04-30T15:34:29.328Z,88.70
2019-04-30T15:36:55.798Z,90.80
2019-04-30T15:39:39.291Z,91.90
2019-04-30T15:42:06.159Z,91.60
2019-04-30T15:44:40.231Z,92.60
2019-04-30T15:47:22.188Z,92.60
2019-04-30T15:49:48.399Z,92.10
2019-04-30T15:52:14.474Z,91.40
2019-04-30T15:54:40.552Z,90.80
2019-04-30T15:57:08.737Z,90.90
2019-04-30T15:59:39.518Z,91.40
2019-04-30T16:02:08.714Z,90.80
2019-04-30T16:04:51.960Z,89.50
2019-04-30T16:07:19.625Z,90.30
2019-04-30T16:09:48.890Z,88.50
2019-04-30T16:12:32.445Z,90.00
2019-04-30T16:14:58.615Z,89.70
2019-04-30T16:17:25.492Z,89.30
2019-04-30T16:19:51.551Z,88.70
2019-04-30T16:22:19.150Z,88.90
2019-04-30T16:24:45.946Z,89.10
2019-04-30T16:27:12.211Z,89.80
2019-04-30T16:29:40.600Z,89.70
2019-04-30T16:32:06.612Z,90.20
2019-04-30T16:34:32.688Z,91.10
2019-04-30T16:36:59.077Z,90.70
2019-04-30T16:39:25.293Z,91.70
2019-04-30T16:41:51.690Z,91.20
2019-04-30T16:44:19.129Z,91.50
2019-04-30T16:46:45.323Z,91.50
2019-04-30T16:49:13.451Z,91.60
2019-04-30T16:51:39.419Z,91.20
2019-04-30T16:54:05.590Z,91.10
2019-04-30T16:56:31.677Z,91.20
2019-04-30T16:59:02.695Z,91.40
2019-04-30T17:01:30.078Z,91.00
2019-04-30T17:03:58.990Z,90.80
2019-04-30T17:06:27.331Z,90.10
2019-04-30T17:08:55.297Z,90.10
2019-04-30T17:11:40.059Z,90.30
2019-04-30T17:14:07.052Z,90.70
2019-04-30T17:16:33.145Z,90.50
2019-04-30T17:18:59.236Z,90.40
2019-04-30T17:21:25.317Z,91.00
2019-04-30T17:23:51.400Z,90.70
2019-04-30T17:26:17.539Z,90.90
2019-04-30T17:28:43.839Z,91.40
2019-04-30T17:31:09.974Z,91.70
2019-04-30T17:33:36.063Z,92.00
2019-04-30T17:36:02.416Z,92.70
2019-04-30T17:38:28.543Z,92.90
2019-04-30T17:40:54.600Z,92.90
2019-04-30T17:43:20.707Z,93.20
2019-04-30T17:45:46.779Z,93.30
2019-04-30T17:48:12.851Z,93.20
2019-04-30T17:50:39.652Z,93.40
2019-04-30T17:53:05.989Z,93.80
2019-04-30T17:55:32.082Z,93.90
2019-04-30T17:57:58.579Z,93.90
2019-04-30T18:00:25.921Z,94.60
2019-04-30T18:02:52.081Z,94.30
2019-04-30T18:07:46.140Z,99.90
2019-04-30T18:10:13.948Z,99.90
2019-04-30T18:12:40.229Z,99.90
2019-04-30T18:15:14.215Z,99.90
2019-04-30T18:17:41.183Z,99.90
2019-04-30T19:51:49.522Z,99.90
2019-04-30T19:54:16.384Z,92.60
2019-04-30T19:56:42.551Z,92.30
2019-04-30T19:59:08.956Z,90.20
2019-04-30T20:01:35.084Z,89.70
2019-04-30T20:04:01.163Z,88.00
2019-04-30T20:06:28.696Z,87.30
2019-04-30T20:08:55.114Z,87.60
2019-04-30T20:11:21.271Z,88.60
2019-04-30T20:13:48.904Z,87.70
2019-04-30T20:16:15.186Z,88.10
2019-04-30T20:18:41.595Z,89.70
2019-04-30T20:21:09.858Z,92.20
2019-04-30T20:23:36.036Z,92.00
2019-04-30T20:26:02.108Z,91.90
2019-04-30T20:28:38.596Z,90.50
2019-04-30T20:30:56.239Z,89.80
2019-04-30T20:33:22.317Z,87.30
2019-04-30T20:35:48.925Z,86.40
2019-04-30T20:38:17.163Z,84.80
2019-04-30T20:40:57.796Z,84.60
2019-04-30T20:43:13.176Z,84.30
2019-04-30T20:45:39.232Z,83.50
2019-04-30T20:48:05.300Z,82.90
2019-04-30T20:50:31.378Z,84.10
2019-04-30T20:52:58.885Z,84.20
2019-04-30T20:55:25.166Z,85.00
2019-04-30T20:57:51.234Z,85.30
2019-04-30T21:00:17.510Z,85.20
2019-04-30T21:02:43.584Z,85.30
2019-04-30T21:05:09.761Z,85.10
2019-04-30T21:07:35.937Z,84.50
2019-04-30T21:10:04.297Z,85.20
2019-04-30T21:12:30.445Z,84.50
2019-04-30T21:14:56.544Z,86.70
2019-04-30T21:17:22.617Z,87.10
2019-04-30T21:19:48.687Z,86.00
2019-04-30T21:22:14.844Z,85.20
2019-04-30T21:24:40.929Z,85.50
2019-04-30T21:27:07.015Z,84.60
2019-04-30T21:29:33.187Z,84.90
2019-04-30T21:32:10.516Z,84.70
2019-04-30T21:34:39.334Z,84.90
2019-04-30T21:37:05.568Z,85.30
2019-04-30T21:39:31.637Z,85.80
2019-04-30T21:41:59.442Z,85.40
2019-04-30T21:44:25.688Z,85.80
2019-04-30T21:46:51.752Z,85.60
2019-04-30T21:49:17.829Z,86.00
2019-04-30T21:51:43.905Z,86.50
2019-04-30T21:54:10.003Z,86.70
2019-04-30T21:56:36.093Z,86.90
2019-04-30T21:59:02.162Z,87.10
2019-04-30T22:01:28.319Z,87.00
2019-04-30T22:03:54.413Z,87.00
2019-04-30T22:06:20.508Z,86.70
2019-04-30T22:08:48.501Z,86.50
2019-04-30T22:11:14.662Z,86.80
2019-04-30T22:13:43.108Z,86.90
2019-04-30T22:16:08.841Z,87.50
2019-04-30T22:18:35.010Z,88.10
2019-04-30T22:21:01.091Z,88.30
2019-04-30T22:23:27.171Z,88.30
2019-04-30T22:25:53.268Z,88.40
2019-04-30T22:28:19.360Z,88.40
2019-04-30T22:30:45.444Z,88.40
2019-04-30T22:33:11.518Z,88.10
2019-04-30T22:35:51.831Z,88.20
2019-04-30T22:38:34.924Z,87.40
2019-04-30T22:41:01.023Z,87.30
2019-04-30T22:43:27.100Z,87.40
2019-04-30T22:46:01.257Z,86.40
2019-04-30T22:48:28.673Z,85.40
2019-04-30T22:50:55.101Z,85.20
2019-04-30T22:53:21.284Z,84.70
2019-04-30T22:55:47.371Z,85.00
2019-04-30T22:58:13.457Z,85.10
2019-04-30T23:00:41.448Z,85.20
2019-04-30T23:03:09.516Z,84.60
2019-04-30T23:05:35.599Z,85.40
2019-04-30T23:08:01.669Z,85.30
2019-04-30T23:10:27.871Z,85.60
2019-04-30T23:12:53.951Z,85.50
2019-04-30T23:15:20.468Z,85.20
2019-04-30T23:17:46.754Z,85.80
2019-04-30T23:20:13.481Z,86.10
2019-04-30T23:22:39.554Z,86.60
2019-04-30T23:25:06.036Z,86.70
2019-04-30T23:27:32.167Z,86.50
2019-04-30T23:30:03.522Z,86.70
2019-04-30T23:32:26.236Z,86.40
2019-04-30T23:34:52.288Z,87.40
2019-04-30T23:37:18.361Z,87.20
2019-04-30T23:39:44.459Z,87.00
2019-04-30T23:42:10.613Z,86.60
2019-04-30T23:44:36.725Z,86.70
2019-04-30T23:47:02.819Z,86.70
2019-04-30T23:49:29.017Z,86.40
2019-04-30T23:51:55.072Z,86.30
2019-04-30T23:54:21.126Z,86.50
2019-04-30T23:56:47.234Z,87.10
2019-04-30T23:59:13.288Z,87.30
